Station Historical Data
Daily Summary for March 24, 2017 Units:  Metric    English   Both
« Previous Day
Next Day »
Daily Weekly Monthly Yearly Custom
  High: Low: Average:
Temperature: 16.1 °C 2.2 °C 8 °C
Dew Point: 9.7 °C -9.4 °C 2 °C
Humidity: 90% 36% 68%
Wind Speed: 22.5km/h 0km/h 7.1km/h
Wind Gust: 38.6km/h - -
Wind- - South
Pressure: 1027 hPa 1014.1 hPa -
Precipitation: 0 mm    
Historical Graphs
 
 
Tabular Data for March 24, 2017
Time Temperature Dew Point Pressure Wind Wind Speed Wind Gust Humidity Rainfall Rate (Hourly)
00:04 2.2 °C -7.4 °C 1027 hPa SE 4.8 km/h 8 km/h 49% 0 mm
00:09 2.2 °C -7.4 °C 1026.6 hPa SSE 4.8 km/h 9.7 km/h 49% 0 mm
00:14 2.3 °C -7.6 °C 1026.3 hPa SSE 4.8 km/h 8 km/h 48% 0 mm
00:19 2.3 °C -7.6 °C 1026.3 hPa SE 3.2 km/h 8 km/h 48% 0 mm
00:24 2.3 °C -7.6 °C 1026 hPa SE 3.2 km/h 9.7 km/h 48% 0 mm
00:29 2.3 °C -7.6 °C 1026.3 hPa SE 3.2 km/h 9.7 km/h 48% 0 mm
00:34 2.3 °C -7.8 °C 1026 hPa SE 1.6 km/h 6.4 km/h 47% 0 mm
00:39 2.3 °C -7.8 °C 1026 hPa SE 1.6 km/h 6.4 km/h 47% 0 mm
00:44 2.4 °C -8.1 °C 1025.6 hPa SSE 3.2 km/h 6.4 km/h 46% 0 mm
00:49 2.4 °C -8.3 °C 1025.3 hPa SSE 4.8 km/h 6.4 km/h 45% 0 mm
00:54 2.6 °C -8.2 °C 1025.3 hPa SE 4.8 km/h 9.7 km/h 45% 0 mm
00:59 2.6 °C -8.5 °C 1025.3 hPa SSE 4.8 km/h 6.4 km/h 44% 0 mm
01:04 2.6 °C -8.7 °C 1025.3 hPa SSE 3.2 km/h 6.4 km/h 43% 0 mm
01:09 2.6 °C -8.8 °C 1025.3 hPa SSE 1.6 km/h 4.8 km/h 43% 0 mm
01:14 2.6 °C -8.8 °C 1024.9 hPa Calm   3.2 km/h 43% 0 mm
01:19 2.6 °C -8.7 °C 1024.9 hPa Calm     43% 0 mm
01:24 2.6 °C -8.8 °C 1024.6 hPa Calm     43% 0 mm
01:29 2.5 °C -8.8 °C 1024.3 hPa Calm   3.2 km/h 43% 0 mm
01:34 2.4 °C -8.9 °C 1024.3 hPa SSE 1.6 km/h 4.8 km/h 43% 0 mm
01:39 2.4 °C -8.6 °C 1024.3 hPa Calm   4.8 km/h 44% 0 mm
01:44 2.3 °C -9 °C 1024.3 hPa Calm   1.6 km/h 43% 0 mm
01:49 2.3 °C -9 °C 1024.3 hPa Calm     43% 0 mm
01:54 2.4 °C -9.2 °C 1024.3 hPa Calm     42% 0 mm
01:59 2.4 °C -9.2 °C 1024.3 hPa Calm     42% 0 mm
02:04 2.5 °C -9.4 °C 1023.9 hPa Calm     41% 0 mm
02:09 2.6 °C -9.1 °C 1023.9 hPa Calm     42% 0 mm
02:14 2.7 °C -9.3 °C 1023.9 hPa Calm     41% 0 mm
02:19 2.8 °C -8.9 °C 1023.6 hPa Calm   3.2 km/h 42% 0 mm
02:24 2.8 °C -8.6 °C 1023.6 hPa Calm   1.6 km/h 43% 0 mm
02:29 2.9 °C -8.8 °C 1023.6 hPa Calm   1.6 km/h 42% 0 mm
02:34 2.9 °C -8.8 °C 1023.6 hPa Calm   1.6 km/h 42% 0 mm
02:39 2.9 °C -8.7 °C 1023.6 hPa Calm   1.6 km/h 42% 0 mm
02:44 3 °C -8.4 °C 1023.2 hPa Calm   1.6 km/h 43% 0 mm
02:49 3 °C -8.4 °C 1023.2 hPa Calm     43% 0 mm
02:54 3.1 °C -7.7 °C 1023.2 hPa Calm     45% 0 mm
02:59 3.1 °C -8.6 °C 1023.2 hPa Calm     42% 0 mm
03:04 3.2 °C -7.9 °C 1023.2 hPa Calm     44% 0 mm
03:09 3.2 °C -8.6 °C 1022.9 hPa Calm     42% 0 mm
03:14 3.3 °C -8.7 °C 1022.9 hPa SSE 1.6 km/h 1.6 km/h 41% 0 mm
03:19 3.4 °C -8.7 °C 1022.6 hPa Calm   4.8 km/h 41% 0 mm
03:24 3.6 °C -8.5 °C 1022.2 hPa Calm   4.8 km/h 41% 0 mm
03:29 3.7 °C -8.7 °C 1022.2 hPa Calm     40% 0 mm
03:34 3.8 °C -8.6 °C 1022.2 hPa Calm     40% 0 mm
03:39 3.9 °C -8.8 °C 1021.9 hPa Calm     39% 0 mm
03:44 4.1 °C -8.9 °C 1021.9 hPa South 4.8 km/h 6.4 km/h 38% 0 mm
03:49 4.5 °C -8.9 °C 1021.6 hPa South 1.6 km/h 9.7 km/h 37% 0 mm
03:54 4.8 °C -8.7 °C 1021.6 hPa South 4.8 km/h 9.7 km/h 37% 0 mm
03:59 4.9 °C -8.9 °C 1021.6 hPa South 3.2 km/h 8 km/h 36% 0 mm
04:04 5.1 °C -8.4 °C 1021.6 hPa South 3.2 km/h 6.4 km/h 37% 0 mm
04:09 5.2 °C -8.4 °C 1021.6 hPa SSE 3.2 km/h 6.4 km/h 37% 0 mm
04:14 5.3 °C -8.6 °C 1021.6 hPa SSW 1.6 km/h 6.4 km/h 36% 0 mm
04:19 5.3 °C -8.2 °C 1021.6 hPa South 4.8 km/h 4.8 km/h 37% 0 mm
04:24 5.4 °C -7.8 °C 1021.6 hPa South 6.4 km/h 6.4 km/h 38% 0 mm
04:29 5.5 °C -7.7 °C 1021.6 hPa South 4.8 km/h 8 km/h 38% 0 mm
04:34 5.6 °C -7.6 °C 1021.2 hPa South 4.8 km/h 8 km/h 38% 0 mm
04:39 5.7 °C -7.2 °C 1021.2 hPa South 4.8 km/h 11.3 km/h 39% 0 mm
04:44 5.8 °C -7.1 °C 1021.2 hPa South 4.8 km/h 11.3 km/h 39% 0 mm
04:49 5.8 °C -7.4 °C 1021.2 hPa South 3.2 km/h 9.7 km/h 38% 0 mm
04:54 5.9 °C -6.7 °C 1021.2 hPa South 4.8 km/h 9.7 km/h 40% 0 mm
04:59 6.1 °C -6.9 °C 1021.2 hPa South 6.4 km/h 19.3 km/h 39% 0 mm
05:04 6.1 °C -5.9 °C 1020.9 hPa SSE 6.4 km/h 9.7 km/h 42% 0 mm
05:09 6.1 °C -5.6 °C 1021.2 hPa SSW 3.2 km/h 12.9 km/h 43% 0 mm
05:14 6.2 °C -4.6 °C 1021.2 hPa SW 1.6 km/h 14.5 km/h 46% 0 mm
05:19 6.4 °C -4.7 °C 1021.6 hPa SSW 6.4 km/h 17.7 km/h 45% 0 mm
05:24 6.4 °C -3.5 °C 1021.2 hPa SSW 6.4 km/h 11.3 km/h 49% 0 mm
05:29 6.4 °C -3.3 °C 1021.2 hPa SSW 6.4 km/h 12.9 km/h 50% 0 mm
05:34 6.3 °C -2.9 °C 1021.6 hPa SSW 8 km/h 25.7 km/h 52% 0.25 mm
05:39 6.2 °C -2.4 °C 1021.2 hPa SSW 11.3 km/h 27.4 km/h 54% 0.25 mm
05:44 6.2 °C -1.5 °C 1021.6 hPa SSW 9.7 km/h 27.4 km/h 58% 0.25 mm
05:49 5.9 °C -1.2 °C 1021.6 hPa SSW 6.4 km/h 16.1 km/h 60% 0.25 mm
05:54 5.8 °C -1.2 °C 1021.2 hPa South 9.7 km/h 14.5 km/h 61% 0.25 mm
05:59 5.6 °C -0.7 °C 1021.2 hPa South 8 km/h 14.5 km/h 64% 0.25 mm
06:04 5.4 °C -0.7 °C 1021.2 hPa South 9.7 km/h 16.1 km/h 65% 0.25 mm
06:09 5.3 °C -0.7 °C 1021.2 hPa SSE 4.8 km/h 12.9 km/h 65% 0.25 mm
06:14 5.2 °C -0.4 °C 1021.2 hPa SE 3.2 km/h 11.3 km/h 67% 0.25 mm
06:19 5.1 °C -0.4 °C 1021.2 hPa SW 8 km/h 14.5 km/h 68% 0.51 mm
06:24 4.9 °C -0.5 °C 1021.2 hPa SSW 6.4 km/h 14.5 km/h 68% 0.51 mm
06:29 4.9 °C -0.5 °C 1020.9 hPa SSW 8 km/h 17.7 km/h 68% 0.76 mm
06:34 4.9 °C -0.3 °C 1021.2 hPa SSW 8 km/h 22.5 km/h 69% 0.51 mm
06:39 4.8 °C -0.4 °C 1021.2 hPa SSW 8 km/h 22.5 km/h 69% 0.76 mm
06:44 4.7 °C -0.3 °C 1021.2 hPa SSW 9.7 km/h 17.7 km/h 70% 1.02 mm
06:49 4.6 °C -0.1 °C 1021.6 hPa SSW 9.7 km/h 20.9 km/h 72% 1.27 mm
06:54 4.3 °C 0.1 °C 1021.2 hPa SSW 4.8 km/h 12.9 km/h 74% 1.52 mm
06:59 4.1 °C 0.2 °C 1021.6 hPa SW 6.4 km/h 16.1 km/h 76% 1.52 mm
07:04 3.9 °C 0.4 °C 1021.6 hPa SSW 6.4 km/h 16.1 km/h 78% 1.78 mm
07:09 3.7 °C 0.3 °C 1021.9 hPa SSW 3.2 km/h 9.7 km/h 79% 2.03 mm
07:14 3.6 °C 0.4 °C 1021.6 hPa Calm   8 km/h 80% 2.29 mm
07:19 3.3 °C 0.6 °C 1021.6 hPa Calm   3.2 km/h 82% 2.29 mm
07:24 3.3 °C 0.7 °C 1021.6 hPa South 3.2 km/h 3.2 km/h 83% 2.54 mm
07:29 3.3 °C 0.8 °C 1021.6 hPa Calm   3.2 km/h 84% 2.54 mm
07:34 3.3 °C 1 °C 1021.2 hPa Calm   3.2 km/h 85% 2.79 mm
07:39 3.3 °C 1.2 °C 1020.9 hPa Calm   3.2 km/h 86% 2.54 mm
07:44 3.3 °C 1.2 °C 1020.5 hPa ESE 1.6 km/h 4.8 km/h 86% 2.54 mm
07:49 3.3 °C 1.4 °C 1020.5 hPa ESE 1.6 km/h 4.8 km/h 87% 2.29 mm
07:54 3.3 °C 1.4 °C 1020.5 hPa East 1.6 km/h 4.8 km/h 87% 2.29 mm
07:59 3.4 °C 1.4 °C 1020.5 hPa ENE 3.2 km/h 4.8 km/h 87% 2.29 mm
08:04 3.3 °C 1.6 °C 1020.5 hPa East 1.6 km/h 8 km/h 88% 2.29 mm
08:09 3.3 °C 1.6 °C 1020.2 hPa ESE 3.2 km/h 8 km/h 88% 2.29 mm
08:14 3.3 °C 1.6 °C 1019.9 hPa ESE 3.2 km/h 8 km/h 88% 2.03 mm
08:19 3.2 °C 1.4 °C 1019.9 hPa SE 8 km/h 12.9 km/h 88% 1.78 mm
08:24 3.2 °C 1.4 °C 1019.5 hPa SSE 9.7 km/h 11.3 km/h 88% 1.52 mm
08:29 3.3 °C 1.6 °C 1019.2 hPa SSE 6.4 km/h 14.5 km/h 89% 1.27 mm
08:34 3.3 °C 1.7 °C 1019.2 hPa SE 4.8 km/h 14.5 km/h 89% 1.02 mm
08:39 3.3 °C 1.7 °C 1019.2 hPa SE 4.8 km/h 12.9 km/h 89% 1.02 mm
08:44 3.4 °C 1.8 °C 1019.2 hPa SE 4.8 km/h 11.3 km/h 89% 0.76 mm
08:49 3.5 °C 1.8 °C 1019.2 hPa SE 4.8 km/h 11.3 km/h 89% 0.76 mm
08:54 3.6 °C 1.9 °C 1018.8 hPa ESE 3.2 km/h 9.7 km/h 89% 0.51 mm
09:04 3.8 °C 2.3 °C 1018.5 hPa SE 3.2 km/h 8 km/h 90% 0.25 mm
09:09 3.9 °C 2.4 °C 1018.5 hPa SE 3.2 km/h 9.7 km/h 90% 0 mm
09:14 4.1 °C 2.6 °C 1018.8 hPa South 4.8 km/h 8 km/h 90% 0 mm
09:19 4.2 °C 2.7 °C 1018.5 hPa SE 6.4 km/h 9.7 km/h 90% 0 mm
09:24 4.3 °C 2.7 °C 1018.5 hPa South 3.2 km/h 8 km/h 89% 0 mm
09:29 4.4 °C 2.7 °C 1018.5 hPa South 4.8 km/h 8 km/h 89% 0 mm
09:34 4.6 °C 3.1 °C 1018.5 hPa South 4.8 km/h 4.8 km/h 90% 0 mm
09:39 4.7 °C 3.2 °C 1018.5 hPa South 3.2 km/h 6.4 km/h 90% 0 mm
09:44 4.9 °C 3.4 °C 1018.2 hPa South 3.2 km/h 8 km/h 90% 0 mm
09:49 5.1 °C 3.4 °C 1018.5 hPa South 3.2 km/h 8 km/h 89% 0 mm
09:54 5.3 °C 3.6 °C 1018.2 hPa SSE 4.8 km/h 4.8 km/h 89% 0 mm
09:59 5.5 °C 3.8 °C 1018.2 hPa SSE 1.6 km/h 4.8 km/h 89% 0 mm
10:04 5.8 °C 4.1 °C 1018.5 hPa Calm   4.8 km/h 89% 0 mm
10:09 6 °C 4.3 °C 1018.2 hPa SSW 1.6 km/h 4.8 km/h 89% 0 mm
10:14 6.3 °C 4.7 °C 1018.5 hPa SSW 1.6 km/h 8 km/h 89% 0 mm
10:19 6.7 °C 4.8 °C 1018.2 hPa SSW 3.2 km/h 9.7 km/h 88% 0 mm
10:24 6.9 °C 4.9 °C 1018.2 hPa South 6.4 km/h 8 km/h 87% 0 mm
10:29 7.1 °C 4.9 °C 1017.8 hPa SSW 3.2 km/h 9.7 km/h 86% 0 mm
10:34 7.3 °C 5 °C 1017.8 hPa South 3.2 km/h 8 km/h 85% 0 mm
10:39 7.5 °C 4.9 °C 1017.8 hPa SSW 3.2 km/h 8 km/h 84% 0 mm
10:44 7.7 °C 5.2 °C 1017.8 hPa SSW 4.8 km/h 8 km/h 84% 0 mm
10:49 7.9 °C 5.2 °C 1017.8 hPa SW 3.2 km/h 8 km/h 83% 0 mm
10:54 8.1 °C 5.4 °C 1017.8 hPa South 4.8 km/h 11.3 km/h 83% 0 mm
10:59 8.3 °C 5.4 °C 1017.5 hPa South 8 km/h 11.3 km/h 82% 0 mm
11:04 8.6 °C 5.7 °C 1017.5 hPa SSW 4.8 km/h 12.9 km/h 82% 0 mm
11:09 8.9 °C 5.8 °C 1017.5 hPa SSW 4.8 km/h 9.7 km/h 81% 0 mm
11:14 9.4 °C 6.1 °C 1017.5 hPa SW 6.4 km/h 12.9 km/h 80% 0 mm
11:19 9.8 °C 6.4 °C 1017.5 hPa SW 6.4 km/h 12.9 km/h 79% 0 mm
11:24 10.2 °C 6.3 °C 1017.2 hPa SW 6.4 km/h 14.5 km/h 77% 0 mm
11:29 10.3 °C 6.2 °C 1017.2 hPa SW 8 km/h 19.3 km/h 76% 0 mm
11:34 10.3 °C 6.1 °C 1017.2 hPa SW 9.7 km/h 19.3 km/h 75% 0 mm
11:39 10.5 °C 6.3 °C 1017.2 hPa WSW 9.7 km/h 14.5 km/h 75% 0 mm
11:44 10.6 °C 6.2 °C 1016.8 hPa SW 9.7 km/h 17.7 km/h 74% 0 mm
11:49 10.8 °C 6.4 °C 1016.5 hPa SW 9.7 km/h 17.7 km/h 74% 0 mm
11:54 11 °C 6.3 °C 1016.5 hPa SSE 11.3 km/h 19.3 km/h 73% 0 mm
11:59 11.1 °C 6.4 °C 1016.5 hPa SW 6.4 km/h 19.3 km/h 73% 0 mm
12:04 11.1 °C 6.3 °C 1016.5 hPa WSW 6.4 km/h 20.9 km/h 72% 0 mm
12:09 11.2 °C 6.5 °C 1016.5 hPa SW 4.8 km/h 17.7 km/h 73% 0 mm
12:14 11.3 °C 6.7 °C 1016.5 hPa SSE 4.8 km/h 16.1 km/h 73% 0 mm
12:19 11.3 °C 6.2 °C 1016.5 hPa SW 9.7 km/h 19.3 km/h 71% 0 mm
12:24 11.2 °C 6.2 °C 1016.1 hPa SW 9.7 km/h 19.3 km/h 71% 0 mm
12:29 11.3 °C 6.4 °C 1016.1 hPa SW 9.7 km/h 17.7 km/h 72% 0 mm
12:34 11.2 °C 5.9 °C 1016.1 hPa SW 9.7 km/h 17.7 km/h 70% 0 mm
12:39 11.1 °C 5.8 °C 1016.1 hPa SW 11.3 km/h 20.9 km/h 70% 0 mm
12:44 11.1 °C 5.8 °C 1016.1 hPa SW 11.3 km/h 22.5 km/h 70% 0 mm
12:49 11.1 °C 5.8 °C 1015.8 hPa SW 9.7 km/h 22.5 km/h 70% 0 mm
12:54 11 °C 5.5 °C 1015.8 hPa SW 11.3 km/h 25.7 km/h 69% 0 mm
12:59 11.1 °C 5.6 °C 1015.8 hPa WSW 4.8 km/h 29 km/h 69% 0 mm
13:04 11.2 °C 5.7 °C 1015.8 hPa SW 11.3 km/h 19.3 km/h 69% 0 mm
13:09 11.4 °C 5.9 °C 1015.8 hPa WSW 12.9 km/h 20.9 km/h 69% 0 mm
13:14 11.8 °C 6.1 °C 1015.8 hPa SW 16.1 km/h 20.9 km/h 68% 0 mm
13:19 11.9 °C 5.9 °C 1015.8 hPa South 8 km/h 24.1 km/h 67% 0 mm
13:24 11.7 °C 5.3 °C 1015.8 hPa WSW 12.9 km/h 24.1 km/h 65% 0 mm
13:29 11.4 °C 5.3 °C 1015.8 hPa WSW 12.9 km/h 24.1 km/h 66% 0 mm
13:34 11.2 °C 5.1 °C 1015.8 hPa SW 14.5 km/h 25.7 km/h 66% 0 mm
13:39 11.1 °C 5.4 °C 1015.5 hPa SW 12.9 km/h 25.7 km/h 68% 0 mm
13:44 11.1 °C 5.2 °C 1015.8 hPa SW 4.8 km/h 24.1 km/h 67% 0 mm
13:54 10.6 °C 4.9 °C 1015.5 hPa WSW 11.3 km/h 24.1 km/h 68% 0 mm
13:59 10.4 °C 4.8 °C 1015.5 hPa WSW 11.3 km/h 25.7 km/h 68% 0 mm
14:04 10.6 °C 5.1 °C 1015.5 hPa SW 11.3 km/h 17.7 km/h 69% 0 mm
14:14 10.6 °C 4.9 °C 1015.5 hPa WSW 9.7 km/h 20.9 km/h 68% 0 mm
14:24 10.6 °C 4.9 °C 1015.1 hPa WSW 11.3 km/h 20.9 km/h 68% 0 mm
14:29 10.7 °C 5 °C 1015.1 hPa WSW 11.3 km/h 19.3 km/h 68% 0 mm
14:34 10.8 °C 5.2 °C 1015.1 hPa SW 14.5 km/h 20.9 km/h 68% 0 mm
14:39 10.9 °C 5.3 °C 1015.1 hPa WSW 9.7 km/h 17.7 km/h 68% 0 mm
14:44 11.3 °C 5.6 °C 1015.1 hPa SW 12.9 km/h 22.5 km/h 68% 0 mm
14:49 11.3 °C 5.2 °C 1015.1 hPa WSW 8 km/h 24.1 km/h 66% 0 mm
14:54 11.3 °C 5.4 °C 1015.1 hPa WSW 12.9 km/h 25.7 km/h 67% 0 mm
14:59 11.3 °C 5.4 °C 1014.8 hPa WSW 11.3 km/h 25.7 km/h 67% 0 mm
15:04 11.4 °C 5.5 °C 1014.8 hPa WSW 12.9 km/h 24.1 km/h 67% 0 mm
15:09 11.4 °C 5.7 °C 1014.8 hPa WSW 14.5 km/h 27.4 km/h 68% 0 mm
15:14 11.7 °C 6 °C 1014.8 hPa WSW 12.9 km/h 29 km/h 68% 0 mm
15:19 12 °C 6.3 °C 1014.4 hPa West 4.8 km/h 22.5 km/h 68% 0 mm
15:24 12.1 °C 6.2 °C 1014.4 hPa SW 19.3 km/h 24.1 km/h 67% 0 mm
15:29 12.2 °C 6.5 °C 1014.4 hPa WSW 11.3 km/h 24.1 km/h 68% 0 mm
15:34 12.4 °C 6.7 °C 1014.4 hPa SW 12.9 km/h 22.5 km/h 68% 0 mm
15:39 12.9 °C 7.1 °C 1014.4 hPa SW 12.9 km/h 27.4 km/h 68% 0 mm
15:44 13.6 °C 7.8 °C 1014.4 hPa SW 17.7 km/h 22.5 km/h 68% 0 mm
15:49 14.2 °C 8.2 °C 1014.4 hPa SW 22.5 km/h 25.7 km/h 67% 0 mm
15:54 14.8 °C 8.6 °C 1014.4 hPa West 14.5 km/h 30.6 km/h 66% 0 mm
15:59 15.2 °C 8.6 °C 1014.1 hPa West 14.5 km/h 32.2 km/h 65% 0 mm
16:04 15.2 °C 8.7 °C 1014.1 hPa WSW 16.1 km/h 32.2 km/h 65% 0 mm
16:09 15.2 °C 8.7 °C 1014.1 hPa WSW 17.7 km/h 35.4 km/h 65% 0 mm
16:14 15.4 °C 9.1 °C 1014.1 hPa WSW 19.3 km/h 38.6 km/h 66% 0 mm
16:19 15.8 °C 9.3 °C 1014.1 hPa SW 16.1 km/h 32.2 km/h 65% 0 mm
16:24 16 °C 9.4 °C 1014.1 hPa West 14.5 km/h 30.6 km/h 65% 0 mm
16:29 16.1 °C 9.5 °C 1014.1 hPa West 12.9 km/h 29 km/h 65% 0 mm
16:34 16.1 °C 9.5 °C 1014.1 hPa WSW 14.5 km/h 29 km/h 65% 0 mm
16:39 15.8 °C 9.3 °C 1014.1 hPa WSW 16.1 km/h 27.4 km/h 65% 0 mm
16:44 15.7 °C 9.4 °C 1014.1 hPa WSW 14.5 km/h 27.4 km/h 66% 0 mm
16:49 15.7 °C 9.4 °C 1014.1 hPa WSW 11.3 km/h 25.7 km/h 66% 0 mm
16:54 15.7 °C 9.4 °C 1014.1 hPa WSW 16.1 km/h 24.1 km/h 66% 0 mm
16:59 15.8 °C 9.7 °C 1014.1 hPa SSW 11.3 km/h 25.7 km/h 67% 0 mm
17:04 15.8 °C 9.5 °C 1014.1 hPa WSW 14.5 km/h 29 km/h 66% 0 mm
17:09 15.9 °C 9.6 °C 1014.1 hPa WSW 16.1 km/h 32.2 km/h 66% 0 mm
17:14 15.8 °C 9.5 °C 1014.1 hPa WSW 17.7 km/h 30.6 km/h 66% 0 mm
17:19 15.6 °C 9.2 °C 1014.4 hPa SSW 11.3 km/h 20.9 km/h 66% 0 mm
17:24 15.2 °C 9.1 °C 1014.4 hPa WSW 20.9 km/h 29 km/h 67% 0 mm
17:29 15 °C 9.1 °C 1014.4 hPa WSW 16.1 km/h 24.1 km/h 68% 0 mm
17:34 14.8 °C 9 °C 1014.1 hPa WSW 14.5 km/h 27.4 km/h 68% 0 mm
17:39 14.6 °C 8.9 °C 1014.1 hPa WSW 16.1 km/h 37 km/h 69% 0 mm
17:44 14.3 °C 8.7 °C 1014.1 hPa WSW 16.1 km/h 37 km/h 69% 0 mm
17:49 14.1 °C 8.7 °C 1014.4 hPa WSW 14.5 km/h 27.4 km/h 70% 0 mm
17:54 13.9 °C 8.8 °C 1014.1 hPa WSW 14.5 km/h 27.4 km/h 71% 0 mm
17:59 13.9 °C 8.7 °C 1014.4 hPa WSW 14.5 km/h 27.4 km/h 71% 0 mm
18:04 13.8 °C 8.6 °C 1014.1 hPa WSW 12.9 km/h 24.1 km/h 71% 0 mm
18:09 13.8 °C 8.7 °C 1014.4 hPa WSW 6.4 km/h 29 km/h 71% 0 mm
18:14 13.8 °C 8.6 °C 1014.4 hPa SW 9.7 km/h 16.1 km/h 71% 0 mm
18:19 13.8 °C 8.8 °C 1014.4 hPa WSW 17.7 km/h 24.1 km/h 72% 0 mm
18:24 13.8 °C 8.6 °C 1014.4 hPa WSW 14.5 km/h 22.5 km/h 71% 0 mm
18:29 13.8 °C 8.9 °C 1014.4 hPa WSW 12.9 km/h 19.3 km/h 72% 0 mm
18:34 13.9 °C 8.9 °C 1014.4 hPa WNW 11.3 km/h 22.5 km/h 72% 0 mm
18:39 13.8 °C 8.9 °C 1014.4 hPa WSW 11.3 km/h 24.1 km/h 72% 0 mm
18:44 13.8 °C 8.8 °C 1014.4 hPa WSW 11.3 km/h 24.1 km/h 72% 0 mm
18:49 13.7 °C 8.7 °C 1014.4 hPa WSW 12.9 km/h 24.1 km/h 72% 0 mm
18:59 13.5 °C 8.6 °C 1014.4 hPa WSW 12.9 km/h 22.5 km/h 72% 0 mm
19:09 13.1 °C 7.9 °C 1014.8 hPa WSW 9.7 km/h 19.3 km/h 71% 0 mm
19:14 12.6 °C 7.7 °C 1014.8 hPa SW 8 km/h 17.7 km/h 72% 0 mm
19:19 11.9 °C 7 °C 1014.8 hPa SW 4.8 km/h 14.5 km/h 72% 0 mm
19:24 11.1 °C 6.7 °C 1015.1 hPa SW 6.4 km/h 11.3 km/h 74% 0 mm
19:29 10.7 °C 6.4 °C 1015.1 hPa SW 6.4 km/h 14.5 km/h 75% 0 mm
19:34 10.4 °C 6.4 °C 1015.1 hPa SSW 9.7 km/h 14.5 km/h 76% 0 mm
19:39 10.3 °C 6.7 °C 1015.5 hPa SSW 8 km/h 14.5 km/h 78% 0 mm
19:44 10.3 °C 6.6 °C 1015.5 hPa SW 6.4 km/h 14.5 km/h 78% 0 mm
19:49 10.2 °C 6.6 °C 1015.5 hPa SW 6.4 km/h 11.3 km/h 78% 0 mm
19:54 10.1 °C 6.4 °C 1015.8 hPa WSW 6.4 km/h 11.3 km/h 78% 0 mm
19:59 10.1 °C 6.6 °C 1015.8 hPa WSW 4.8 km/h 11.3 km/h 79% 0 mm
20:04 10.1 °C 6.6 °C 1015.8 hPa SW 3.2 km/h 9.7 km/h 79% 0 mm
20:09 10.2 °C 6.7 °C 1015.8 hPa SW 4.8 km/h 9.7 km/h 79% 0 mm
20:14 10.2 °C 6.7 °C 1015.8 hPa SW 4.8 km/h 12.9 km/h 79% 0 mm
20:19 10.3 °C 6.8 °C 1015.8 hPa SW 4.8 km/h 9.7 km/h 79% 0 mm
20:24 10.2 °C 6.7 °C 1015.8 hPa SSW 8 km/h 9.7 km/h 79% 0 mm
20:29 10.1 °C 6.6 °C 1016.1 hPa WSW 8 km/h 9.7 km/h 79% 0 mm
20:34 9.9 °C 6.4 °C 1016.1 hPa WSW 1.6 km/h 11.3 km/h 79% 0 mm
20:39 9.8 °C 6.3 °C 1016.5 hPa NW 3.2 km/h 4.8 km/h 79% 0 mm
20:44 9.7 °C 6.4 °C 1016.5 hPa Calm   4.8 km/h 80% 0 mm
20:49 9.7 °C 6.4 °C 1016.8 hPa West 1.6 km/h 8 km/h 80% 0 mm
20:54 9.7 °C 6.4 °C 1016.8 hPa SW 3.2 km/h 9.7 km/h 80% 0 mm
20:59 9.6 °C 6.3 °C 1016.8 hPa SW 3.2 km/h 9.7 km/h 80% 0 mm
21:04 9.6 °C 6.3 °C 1017.2 hPa WSW 3.2 km/h 8 km/h 80% 0 mm
21:09 9.6 °C 6.5 °C 1017.2 hPa NNE 1.6 km/h 8 km/h 81% 0 mm
21:14 9.8 °C 6.7 °C 1017.5 hPa NE 4.8 km/h 20.9 km/h 81% 0 mm
21:19 9.8 °C 6.4 °C 1017.2 hPa NE 3.2 km/h 17.7 km/h 79% 0 mm
21:24 9.9 °C 6.1 °C 1017.5 hPa NNE 9.7 km/h 22.5 km/h 77% 0 mm
21:29 9.9 °C 5.8 °C 1017.2 hPa NNE 4.8 km/h 20.9 km/h 76% 0 mm
21:34 9.8 °C 6 °C 1016.8 hPa NNE 11.3 km/h 19.3 km/h 77% 0 mm
21:39 9.7 °C 6 °C 1017.2 hPa NNE 6.4 km/h 20.9 km/h 78% 0 mm
21:44 9.4 °C 6 °C 1017.5 hPa NE 6.4 km/h 16.1 km/h 79% 0 mm
21:49 9.2 °C 5.8 °C 1017.8 hPa NE 11.3 km/h 16.1 km/h 79% 0 mm
21:54 9.1 °C 5.8 °C 1017.8 hPa NE 9.7 km/h 22.5 km/h 80% 0 mm
21:59 8.8 °C 5.6 °C 1017.8 hPa NNE 8 km/h 22.5 km/h 80% 0 mm
22:04 8.7 °C 5.4 °C 1018.2 hPa NNE 8 km/h 22.5 km/h 80% 0 mm
22:09 8.6 °C 5.3 °C 1017.8 hPa NE 9.7 km/h 22.5 km/h 80% 0 mm
22:14 8.5 °C 5.2 °C 1018.2 hPa NNE 6.4 km/h 17.7 km/h 80% 0 mm
22:19 8.3 °C 5.1 °C 1018.2 hPa NNE 6.4 km/h 19.3 km/h 80% 0 mm
22:24 8.2 °C 4.9 °C 1018.2 hPa NE 9.7 km/h 16.1 km/h 80% 0 mm
22:29 8.1 °C 5 °C 1018.2 hPa NNE 4.8 km/h 19.3 km/h 81% 0 mm
22:34 7.9 °C 4.8 °C 1018.2 hPa ENE 19.3 km/h 19.3 km/h 81% 0 mm
22:39 7.7 °C 4.5 °C 1018.5 hPa NE 9.7 km/h 22.5 km/h 80% 0 mm
22:44 7.6 °C 4.5 °C 1018.2 hPa ENE 4.8 km/h 20.9 km/h 81% 0 mm
22:49 7.4 °C 4.3 °C 1018.5 hPa NNE 3.2 km/h 16.1 km/h 81% 0 mm
22:54 7.2 °C 4.3 °C 1018.5 hPa NE 6.4 km/h 16.1 km/h 82% 0 mm
22:59 7.1 °C 4.2 °C 1019.2 hPa NNE 8 km/h 17.7 km/h 82% 0 mm
23:04 7.1 °C 4.2 °C 1019.5 hPa NNE 9.7 km/h 19.3 km/h 82% 0 mm
23:09 7 °C 4.1 °C 1019.5 hPa NNE 9.7 km/h 20.9 km/h 82% 0 mm
23:14 6.9 °C 3.8 °C 1019.5 hPa NE 9.7 km/h 20.9 km/h 81% 0 mm
23:19 6.8 °C 3.8 °C 1019.2 hPa ENE 14.5 km/h 24.1 km/h 81% 0 mm
23:24 6.7 °C 3.9 °C 1018.8 hPa NE 11.3 km/h 24.1 km/h 82% 0 mm
23:29 6.7 °C 3.8 °C 1018.8 hPa NE 11.3 km/h 22.5 km/h 82% 0 mm
23:34 6.6 °C 3.8 °C 1019.2 hPa NE 12.9 km/h 24.1 km/h 82% 0 mm
23:39 6.6 °C 3.8 °C 1019.2 hPa NE 16.1 km/h 19.3 km/h 82% 0 mm
23:44 6.6 °C 3.8 °C 1019.2 hPa NE 14.5 km/h 19.3 km/h 82% 0 mm
23:49 6.7 °C 3.8 °C 1019.2 hPa NE 6.4 km/h 17.7 km/h 82% 0 mm
23:54 6.6 °C 3.8 °C 1019.2 hPa NE 9.7 km/h 19.3 km/h 82% 0 mm
23:59 6.6 °C 3.8 °C 1019.2 hPa NE 9.7 km/h 19.3 km/h 82% 0 mm
Buffalo, New York, USA
Compliments of Weather Underground - 2.5 mb